Time;durP1;ratioP1;P1;durP2;ratioP2;P2;SDS_P1;SDS_P2;PMS_P1;PMS_P2;Temp;Humidity;BMP_temperature;BMP_pressure;BME280_temperature;BME280_humidity;BME280_pressure;Samples;Min_cycle;Max_cycle;Signal;HPM_P1;HPM_P2
2021/12/16 00:08:52;;;;;;;15.02;7.03;;;6.10;99.90;;;;;;5058839;28;20086;-70
2021/12/16 00:30:12;;;;;;;12.38;7.00;;;6.10;99.90;;;;;;5063974;28;20386;-70
2021/12/16 00:35:05;;;;;;;13.73;7.17;;;6.20;99.90;;;;;;5065375;28;20154;-71
2021/12/16 00:37:31;;;;;;;11.85;6.95;;;6.20;99.90;;;;;;5064614;28;20028;-71
2021/12/16 00:39:56;;;;;;;10.90;6.70;;;6.20;99.90;;;;;;5065509;28;20024;-71
2021/12/16 00:48:19;;;;;;;11.93;6.82;;;6.20;99.90;;;;;;5056912;28;20566;-70
2021/12/16 00:56:00;;;;;;;12.45;6.43;;;6.20;99.90;;;;;;5063570;28;20040;-70
2021/12/16 00:58:33;;;;;;;12.57;7.07;;;6.20;99.90;;;;;;5064434;28;20037;-71
2021/12/16 01:01:14;;;;;;;13.02;7.07;;;6.20;99.90;;;;;;5063017;28;20710;-70
2021/12/16 01:34:01;;;;;;;10.68;5.97;;;6.30;99.90;;;;;;5063346;28;21139;-70
2021/12/16 01:47:55;;;;;;;9.65;5.35;;;6.20;99.90;;;;;;5061456;28;20032;-70
2021/12/16 01:50:09;;;;;;;10.38;5.35;;;6.20;99.90;;;;;;5058100;28;20116;-70
2021/12/16 01:55:52;;;;;;;9.48;5.00;;;6.20;99.90;;;;;;5014429;28;20034;-70
2021/12/16 01:58:21;;;;;;;;;;;6.20;99.90;;;;;;5062681;28;21078;-70
2021/12/16 02:03:43;;;;;;;10.10;5.68;;;6.20;99.90;;;;;;5060815;28;20086;-70
2021/12/16 02:08:39;;;;;;;10.82;5.18;;;6.20;99.90;;;;;;5060150;28;20466;-71
2021/12/16 02:11:26;;;;;;;10.73;5.10;;;6.20;99.90;;;;;;5058814;28;20025;-71
2021/12/16 02:35:35;;;;;;;7.07;4.22;;;6.20;99.90;;;;;;5060994;28;20044;-70
2021/12/16 02:38:05;;;;;;;9.55;4.75;;;6.20;99.90;;;;;;5062257;28;20021;-70
2021/12/16 02:40:32;;;;;;;10.50;5.65;;;6.30;99.90;;;;;;5061405;28;20024;-70
2021/12/16 02:43:06;;;;;;;10.35;4.85;;;6.20;99.90;;;;;;5062525;28;20027;-71
2021/12/16 02:51:16;;;;;;;8.60;4.65;;;6.20;99.90;;;;;;5059353;28;20029;-70
2021/12/16 02:53:47;;;;;;;7.80;4.55;;;6.20;99.90;;;;;;5063173;28;20108;-70
2021/12/16 02:56:14;;;;;;;11.07;5.07;;;6.20;99.90;;;;;;5056518;28;20082;-70
2021/12/16 02:58:42;;;;;;;9.73;4.43;;;6.10;99.90;;;;;;5058927;28;20492;-71
2021/12/16 03:01:28;;;;;;;10.23;5.30;;;6.20;99.90;;;;;;5061505;28;20037;-70
2021/12/16 03:03:55;;;;;;;8.43;4.90;;;6.20;99.90;;;;;;5058484;28;20086;-70
2021/12/16 03:06:22;;;;;;;10.15;5.15;;;6.10;99.90;;;;;;5062739;28;20021;-71
2021/12/16 03:08:49;;;;;;;7.53;4.95;;;6.20;99.90;;;;;;5061783;28;20474;-70
2021/12/16 03:11:26;;;;;;;8.93;4.90;;;6.20;99.90;;;;;;5061493;28;20039;-70
2021/12/16 03:14:17;;;;;;;9.65;5.28;;;6.20;99.90;;;;;;5064458;28;20017;-70
2021/12/16 03:21:52;;;;;;;9.65;5.30;;;6.10;99.90;;;;;;5063697;28;20071;-70
2021/12/16 03:38:09;;;;;;;11.63;6.00;;;6.00;99.90;;;;;;5062379;28;20048;-70
2021/12/16 03:40:37;;;;;;;10.48;6.10;;;6.10;99.90;;;;;;5063278;28;20041;-70
2021/12/16 03:43:13;;;;;;;9.93;5.75;;;6.10;99.90;;;;;;5061388;28;20059;-70
2021/12/16 03:48:53;;;;;;;10.48;5.93;;;6.10;99.90;;;;;;5058490;28;20038;-70
2021/12/16 03:51:19;;;;;;;9.65;6.15;;;6.10;99.90;;;;;;5059848;28;20032;-70
2021/12/16 03:53:49;;;;;;;11.00;6.40;;;6.10;99.90;;;;;;5060352;28;20449;-70
2021/12/16 03:56:16;;;;;;;11.15;6.25;;;6.10;99.90;;;;;;5060356;28;20028;-71
2021/12/16 03:58:41;;;;;;;12.65;6.47;;;6.10;99.90;;;;;;5061745;28;20066;-71
2021/12/16 04:01:13;;;;;;;11.47;6.13;;;6.10;99.90;;;;;;5058239;28;20029;-71
2021/12/16 04:03:39;;;;;;;12.30;7.07;;;6.10;99.90;;;;;;5060092;28;20111;-70
2021/12/16 04:06:06;;;;;;;11.02;6.40;;;6.10;99.90;;;;;;5062839;28;20489;-70
2021/12/16 04:08:32;;;;;;;;;;;6.10;99.90;;;;;;5066049;28;20103;-70
2021/12/16 04:11:07;;;;;;;12.48;6.82;;;6.10;99.90;;;;;;5060714;28;20337;-70
2021/12/16 04:13:42;;;;;;;10.75;6.22;;;6.10;99.90;;;;;;5066085;28;20398;-70
2021/12/16 04:16:08;;;;;;;11.63;7.18;;;6.00;99.90;;;;;;5061579;28;20078;-71
2021/12/16 04:18:33;;;;;;;11.60;7.05;;;6.00;99.90;;;;;;5063588;28;20024;-70
2021/12/16 04:21:00;;;;;;;12.83;7.87;;;6.00;99.90;;;;;;5062880;28;20071;-71
2021/12/16 04:23:26;;;;;;;;;;;6.00;99.90;;;;;;5063902;28;20050;-70
2021/12/16 04:25:52;;;;;;;13.23;7.95;;;6.00;99.90;;;;;;5064027;28;20832;-70
2021/12/16 04:28:25;;;;;;;12.20;8.00;;;6.00;99.90;;;;;;5063445;28;20027;-70
2021/12/16 04:30:52;;;;;;;13.35;7.38;;;6.00;99.90;;;;;;5066400;28;20020;-70
2021/12/16 04:33:19;;;;;;;13.70;7.70;;;5.90;99.90;;;;;;5065341;28;20017;-71
2021/12/16 04:35:45;;;;;;;13.13;8.38;;;5.90;99.90;;;;;;5064885;28;20017;-70
2021/12/16 04:38:11;;;;;;;12.07;7.33;;;6.00;99.90;;;;;;5063930;28;20358;-70
2021/12/16 04:40:38;;;;;;;15.70;8.23;;;5.90;99.90;;;;;;5060225;28;20028;-71
2021/12/16 04:43:06;;;;;;;12.30;6.95;;;6.00;99.90;;;;;;5060470;28;20032;-71
2021/12/16 04:45:33;;;;;;;11.88;7.47;;;5.90;99.90;;;;;;5062161;28;20028;-70
2021/12/16 04:48:00;;;;;;;13.38;8.63;;;5.90;99.90;;;;;;5063144;28;20512;-71
2021/12/16 04:50:27;;;;;;;17.27;9.10;;;5.90;99.90;;;;;;5061198;28;20028;-71
2021/12/16 04:52:53;;;;;;;14.60;8.27;;;5.90;99.90;;;;;;5063647;28;20171;-70
2021/12/16 04:55:20;;;;;;;15.73;9.03;;;5.90;99.90;;;;;;5061590;28;21030;-71
2021/12/16 04:57:47;;;;;;;16.45;9.25;;;5.90;99.90;;;;;;5060835;28;20090;-71
2021/12/16 05:00:16;;;;;;;14.35;8.75;;;5.90;99.90;;;;;;5062883;28;20060;-71
2021/12/16 05:02:42;;;;;;;15.07;9.00;;;5.90;99.90;;;;;;5064410;28;20044;-71
2021/12/16 05:05:08;;;;;;;16.23;9.02;;;5.90;99.90;;;;;;5062916;28;20021;-70
2021/12/16 05:07:34;;;;;;;15.95;9.10;;;5.90;99.90;;;;;;5062254;28;20020;-71
2021/12/16 05:10:09;;;;;;;16.23;9.23;;;5.90;99.90;;;;;;5062865;28;20094;-70
2021/12/16 05:12:46;;;;;;;16.33;8.45;;;5.90;99.90;;;;;;5063379;28;20382;-71
2021/12/16 05:15:18;;;;;;;15.48;9.00;;;5.90;99.90;;;;;;5060631;28;20021;-71
2021/12/16 05:17:50;;;;;;;12.73;7.80;;;5.90;99.90;;;;;;5064370;28;20025;-71
2021/12/16 05:20:22;;;;;;;15.82;8.23;;;5.80;99.90;;;;;;5063000;28;20028;-71
2021/12/16 05:25:45;;;;;;;14.88;8.77;;;5.90;99.90;;;;;;5062361;28;20528;-71
2021/12/16 05:28:14;;;;;;;16.15;8.27;;;5.80;99.90;;;;;;5061319;28;20082;-71
2021/12/16 05:30:39;;;;;;;14.27;7.57;;;5.80;99.90;;;;;;5065440;28;20017;-71
2021/12/16 05:33:05;;;;;;;14.53;7.57;;;5.80;99.90;;;;;;5064164;28;20033;-72
2021/12/16 05:35:32;;;;;;;14.70;7.60;;;5.80;99.90;;;;;;5063322;28;20104;-71
2021/12/16 05:37:58;;;;;;;14.05;7.80;;;5.80;99.90;;;;;;5063082;28;20262;-72
2021/12/16 05:40:27;;;;;;;13.33;7.73;;;5.80;99.90;;;;;;5064240;28;20060;-71
2021/12/16 05:42:55;;;;;;;12.73;7.90;;;5.80;99.90;;;;;;5064388;28;20044;-71
2021/12/16 05:45:23;;;;;;;12.40;7.40;;;5.80;99.90;;;;;;5064404;28;20025;-71
2021/12/16 05:47:50;;;;;;;13.10;7.63;;;5.80;99.90;;;;;;5062149;28;20024;-71
2021/12/16 05:50:18;;;;;;;14.07;8.93;;;5.70;99.90;;;;;;5063339;28;20019;-71
2021/12/16 05:52:44;;;;;;;13.98;7.47;;;5.70;99.90;;;;;;5062236;28;20017;-71
2021/12/16 05:55:14;;;;;;;12.18;7.57;;;5.70;99.90;;;;;;5064987;28;20039;-72
2021/12/16 05:57:40;;;;;;;13.00;7.18;;;5.60;99.90;;;;;;5061584;28;20597;-71
2021/12/16 06:00:11;;;;;;;13.30;7.55;;;5.60;99.90;;;;;;5060489;28;20023;-71
2021/12/16 06:02:37;;;;;;;14.00;7.93;;;5.60;99.90;;;;;;5061284;28;20029;-71
2021/12/16 06:05:03;;;;;;;15.40;8.37;;;5.60;99.90;;;;;;5063755;28;20032;-71
2021/12/16 06:07:29;;;;;;;15.70;8.93;;;5.60;99.90;;;;;;5062233;28;20025;-71
2021/12/16 06:09:55;;;;;;;14.33;8.77;;;5.60;99.90;;;;;;5062768;28;20078;-71
2021/12/16 06:12:23;;;;;;;16.13;9.47;;;5.60;99.90;;;;;;5062923;28;20028;-71
2021/12/16 06:28:23;;;;;;;12.25;7.28;;;5.50;99.90;;;;;;5018533;28;20025;-71
2021/12/16 06:30:51;;;;;;;13.80;8.13;;;5.50;99.90;;;;;;5018370;28;20530;-71
2021/12/16 06:33:22;;;;;;;16.42;8.23;;;5.50;99.90;;;;;;5040089;28;20079;-70
2021/12/16 06:35:49;;;;;;;15.80;8.60;;;5.50;99.90;;;;;;5061808;28;20024;-70
2021/12/16 06:38:15;;;;;;;;;;;5.50;99.90;;;;;;5062481;28;20051;-71
2021/12/16 06:40:41;;;;;;;14.52;8.38;;;5.40;99.90;;;;;;5061064;28;19904;-70
2021/12/16 06:43:09;;;;;;;14.67;8.53;;;5.40;99.90;;;;;;5055822;28;20021;-70
2021/12/16 06:45:38;;;;;;;14.23;7.38;;;5.40;99.90;;;;;;5063152;28;20039;-70
2021/12/16 06:48:11;;;;;;;13.45;7.10;;;5.40;99.90;;;;;;5062436;28;20075;-71
2021/12/16 06:53:09;;;;;;;12.90;7.07;;;5.40;99.90;;;;;;5056674;28;20025;-70
2021/12/16 06:58:43;;;;;;;11.60;6.88;;;5.40;99.90;;;;;;5062262;28;20524;-70
2021/12/16 07:01:09;;;;;;;14.10;7.43;;;5.40;99.90;;;;;;5060152;28;20347;-70
2021/12/16 07:03:47;;;;;;;12.13;6.82;;;5.40;99.90;;;;;;5057098;28;20028;-71
2021/12/16 07:06:23;;;;;;;;;;;5.40;99.90;;;;;;5063947;28;20115;-71
2021/12/16 07:08:55;;;;;;;14.20;8.20;;;5.40;99.90;;;;;;5060037;28;19919;-71
2021/12/16 07:11:21;;;;;;;13.32;7.30;;;5.40;99.90;;;;;;5062840;28;20102;-71
2021/12/16 07:13:56;;;;;;;12.55;6.63;;;5.40;99.90;;;;;;5061164;28;20075;-71
2021/12/16 07:16:23;;;;;;;12.73;7.35;;;5.50;99.90;;;;;;5061488;28;20175;-71
2021/12/16 07:18:49;;;;;;;13.35;7.18;;;5.50;99.90;;;;;;5057410;28;20127;-71
2021/12/16 07:21:15;;;;;;;14.98;8.23;;;5.50;99.90;;;;;;5063092;28;20028;-71
2021/12/16 07:23:41;;;;;;;16.00;8.87;;;5.40;99.90;;;;;;5061894;28;20031;-71
2021/12/16 07:26:07;;;;;;;12.77;7.53;;;5.50;99.90;;;;;;5061285;28;20025;-70
2021/12/16 07:28:33;;;;;;;16.03;8.80;;;5.50;99.90;;;;;;5060600;28;20074;-71
2021/12/16 07:30:59;;;;;;;16.83;9.03;;;5.50;99.90;;;;;;5060961;28;20051;-71
2021/12/16 07:33:25;;;;;;;17.92;9.10;;;5.40;99.90;;;;;;5063219;28;20034;-71
2021/12/16 07:35:52;;;;;;;17.80;9.50;;;5.40;99.90;;;;;;5058733;28;20059;-70
2021/12/16 07:38:18;;;;;;;16.45;8.88;;;5.40;99.90;;;;;;5061088;28;20103;-71
2021/12/16 07:40:47;;;;;;;17.10;9.95;;;5.40;99.90;;;;;;5062862;28;20033;-70
2021/12/16 07:43:25;;;;;;;16.02;9.77;;;5.30;99.90;;;;;;5059003;28;20647;-71
2021/12/16 07:45:54;;;;;;;18.52;9.40;;;5.30;99.90;;;;;;5062969;28;20016;-71
2021/12/16 07:48:23;;;;;;;16.35;9.15;;;5.30;99.90;;;;;;5061344;28;20027;-71
2021/12/16 07:50:55;;;;;;;15.30;9.18;;;5.30;99.90;;;;;;5061499;28;20013;-71
2021/12/16 07:53:21;;;;;;;17.98;9.65;;;5.30;99.90;;;;;;5062301;28;20532;-70
2021/12/16 07:55:47;;;;;;;17.45;9.77;;;5.30;99.90;;;;;;5060764;28;20055;-70
2021/12/16 07:58:14;;;;;;;20.30;10.90;;;5.30;99.90;;;;;;5062408;28;20024;-71
2021/12/16 08:00:40;;;;;;;17.83;9.52;;;5.40;99.90;;;;;;5061031;28;20032;-70
2021/12/16 08:03:08;;;;;;;18.95;9.95;;;5.40;99.90;;;;;;5061629;28;20086;-70
2021/12/16 08:05:40;;;;;;;28.77;10.75;;;5.50;99.90;;;;;;5057088;28;20056;-71
2021/12/16 08:08:08;;;;;;;21.02;10.05;;;5.50;99.90;;;;;;5054763;28;20485;-71
2021/12/16 08:10:34;;;;;;;15.80;8.95;;;5.60;99.90;;;;;;5060848;28;20048;-70
2021/12/16 08:13:00;;;;;;;18.00;9.82;;;5.70;99.90;;;;;;5059866;28;20742;-70
2021/12/16 08:15:26;;;;;;;15.47;9.03;;;5.80;99.90;;;;;;5061009;28;20029;-70
2021/12/16 08:17:54;;;;;;;14.73;9.00;;;5.80;99.90;;;;;;5061558;28;20028;-70
2021/12/16 08:20:21;;;;;;;16.30;8.25;;;5.80;99.90;;;;;;5061539;28;20032;-71
2021/12/16 08:22:49;;;;;;;14.65;7.75;;;5.70;99.90;;;;;;5061746;28;20599;-71
2021/12/16 08:25:18;;;;;;;17.55;8.10;;;5.80;99.90;;;;;;5058501;28;20031;-71
2021/12/16 08:27:45;;;;;;;71.93;15.48;;;5.90;99.90;;;;;;5059754;28;20531;-70
2021/12/16 08:30:15;;;;;;;21.42;7.40;;;5.90;99.90;;;;;;5058329;28;20021;-70
2021/12/16 08:32:41;;;;;;;10.95;6.00;;;5.90;99.90;;;;;;5059917;28;20053;-70
2021/12/16 08:35:08;;;;;;;12.05;5.80;;;6.00;99.90;;;;;;5063248;28;20087;-71
2021/12/16 08:37:34;;;;;;;12.18;6.40;;;6.20;99.90;;;;;;5060692;28;20032;-71
2021/12/16 08:40:02;;;;;;;9.97;5.57;;;6.60;99.90;;;;;;5059280;28;20929;-71
2021/12/16 08:42:28;;;;;;;9.95;6.22;;;6.60;99.90;;;;;;5061923;28;20271;-71
2021/12/16 08:44:54;;;;;;;10.53;6.50;;;6.70;99.90;;;;;;5057253;28;20024;-71
2021/12/16 08:47:20;;;;;;;9.70;5.50;;;6.80;99.90;;;;;;5062597;28;20016;-71
2021/12/16 08:49:47;;;;;;;9.57;5.20;;;7.10;99.90;;;;;;5060751;28;20073;-71
2021/12/16 08:52:18;;;;;;;9.25;4.80;;;7.70;99.90;;;;;;5065011;28;20136;-71
2021/12/16 08:54:45;;;;;;;7.35;4.40;;;7.80;99.90;;;;;;5065139;28;20035;-71
2021/12/16 08:57:12;;;;;;;10.40;4.82;;;7.70;99.90;;;;;;5062088;28;20129;-71
2021/12/16 08:59:39;;;;;;;6.32;4.18;;;7.50;99.90;;;;;;5064527;28;20040;-71
2021/12/16 09:02:07;;;;;;;6.35;4.15;;;7.40;99.90;;;;;;5061860;28;20044;-71
2021/12/16 09:04:34;;;;;;;7.93;4.25;;;7.40;99.90;;;;;;5065047;28;20055;-71
2021/12/16 09:07:04;;;;;;;7.32;4.07;;;7.60;99.90;;;;;;5063239;28;20028;-71
2021/12/16 09:09:33;;;;;;;9.00;4.43;;;7.60;99.90;;;;;;5064176;28;20063;-71
2021/12/16 09:12:26;;;;;;;6.95;4.18;;;7.60;99.90;;;;;;5063456;28;20027;-71
2021/12/16 09:14:52;;;;;;;8.15;4.40;;;7.30;99.90;;;;;;5062028;28;20020;-71
2021/12/16 09:17:17;;;;;;;6.10;4.28;;;7.20;99.90;;;;;;5062848;28;20036;-71
2021/12/16 09:19:48;;;;;;;5.90;3.60;;;7.10;99.90;;;;;;5062385;28;20066;-71
2021/12/16 09:22:16;;;;;;;6.75;3.45;;;7.20;99.90;;;;;;5063718;28;20028;-71
2021/12/16 09:24:43;;;;;;;5.68;3.67;;;7.30;99.90;;;;;;5064370;28;20025;-71
2021/12/16 09:27:08;;;;;;;6.40;3.80;;;7.30;99.90;;;;;;5063478;28;20162;-71
2021/12/16 09:29:34;;;;;;;5.57;3.33;;;7.30;99.90;;;;;;5062485;28;20104;-71
2021/12/16 09:32:03;;;;;;;5.33;3.20;;;7.10;99.90;;;;;;5062863;28;20036;-71
2021/12/16 09:34:30;;;;;;;51.25;8.15;;;7.20;99.90;;;;;;5064374;28;20021;-71
2021/12/16 09:36:55;;;;;;;14.80;4.65;;;7.10;99.90;;;;;;5064115;28;20643;-71
2021/12/16 09:39:25;;;;;;;20.47;6.23;;;7.10;99.90;;;;;;5064562;28;20020;-71
2021/12/16 09:41:52;;;;;;;11.45;3.42;;;7.10;99.90;;;;;;5063221;28;20024;-71
2021/12/16 09:44:19;;;;;;;4.90;2.70;;;7.30;99.90;;;;;;5063840;28;20032;-71
2021/12/16 09:46:48;;;;;;;5.10;2.63;;;7.50;99.90;;;;;;5063251;28;20029;-71
2021/12/16 09:49:17;;;;;;;4.10;2.40;;;7.70;99.90;;;;;;5061939;28;20021;-71
2021/12/16 09:51:43;;;;;;;4.38;2.83;;;7.70;99.90;;;;;;5062489;28;20048;-71
2021/12/16 09:54:18;;;;;;;5.00;2.97;;;7.70;99.90;;;;;;5064214;28;20027;-71
2021/12/16 09:56:47;;;;;;;5.50;3.00;;;7.60;99.90;;;;;;5057299;28;20074;-71
2021/12/16 09:59:16;;;;;;;4.82;2.97;;;7.50;99.90;;;;;;5061645;28;20020;-71
2021/12/16 10:01:44;;;;;;;5.20;3.33;;;7.40;99.90;;;;;;5062504;28;20025;-71
2021/12/16 10:04:13;;;;;;;7.18;3.05;;;7.30;99.90;;;;;;5061985;28;20652;-71
2021/12/16 10:06:41;;;;;;;5.28;3.45;;;7.10;99.90;;;;;;5057000;28;20367;-71
2021/12/16 10:09:10;;;;;;;4.45;3.05;;;7.00;99.90;;;;;;5062325;28;20040;-70
2021/12/16 10:11:38;;;;;;;7.32;3.67;;;6.80;99.90;;;;;;5058121;28;20063;-71
2021/12/16 10:14:19;;;;;;;8.27;3.85;;;6.70;99.90;;;;;;5063412;28;20101;-70
2021/12/16 10:19:33;;;;;;;5.60;3.17;;;6.50;99.90;;;;;;5062790;28;20048;-71
2021/12/16 10:22:18;;;;;;;6.13;3.58;;;6.40;99.90;;;;;;5063749;28;20025;-71
2021/12/16 10:24:44;;;;;;;7.35;4.25;;;6.30;99.90;;;;;;5062149;28;20060;-71
2021/12/16 10:27:23;;;;;;;10.68;4.60;;;6.20;99.90;;;;;;5061626;28;20028;-71
2021/12/16 10:29:59;;;;;;;7.50;4.15;;;6.30;99.90;;;;;;5062254;28;20066;-70
2021/12/16 10:32:38;;;;;;;5.63;3.47;;;6.40;99.90;;;;;;5059866;28;20490;-71
2021/12/16 10:35:09;;;;;;;6.32;3.40;;;6.50;99.90;;;;;;5064426;28;20016;-70
2021/12/16 10:37:39;;;;;;;7.75;4.13;;;6.50;99.90;;;;;;5058736;28;20031;-71
2021/12/16 10:40:26;;;;;;;7.43;4.57;;;6.40;99.90;;;;;;5062357;28;20108;-71
2021/12/16 10:42:54;;;;;;;6.00;4.13;;;6.40;99.90;;;;;;5060436;28;20032;-71
2021/12/16 10:45:31;;;;;;;9.50;4.43;;;6.30;99.90;;;;;;5061428;28;20453;-70
2021/12/16 10:48:28;;;;;;;8.43;4.10;;;6.20;99.90;;;;;;5057470;28;20639;-70
2021/12/16 10:51:33;;;;;;;6.85;4.32;;;6.20;99.90;;;;;;5061871;28;20078;-71
2021/12/16 10:54:16;;;;;;;6.93;3.90;;;6.20;99.90;;;;;;5059379;28;20044;-70
2021/12/16 10:56:45;;;;;;;7.47;4.45;;;6.20;99.90;;;;;;5057993;28;20032;-71
2021/12/16 10:59:40;;;;;;;20.17;9.00;;;6.10;99.90;;;;;;5059183;28;20027;-70
2021/12/16 11:02:35;;;;;;;7.85;4.53;;;6.20;99.90;;;;;;5060049;28;20067;-70
2021/12/16 11:05:06;;;;;;;7.07;3.85;;;6.20;99.90;;;;;;5062695;28;20028;-70
2021/12/16 11:07:39;;;;;;;5.53;3.78;;;6.20;99.90;;;;;;5062911;28;20035;-70
2021/12/16 11:10:15;;;;;;;6.25;3.97;;;6.30;99.90;;;;;;5060833;28;20710;-70
2021/12/16 11:13:04;;;;;;;6.38;4.00;;;6.30;99.90;;;;;;5062021;28;20344;-71
2021/12/16 11:15:34;;;;;;;5.72;3.50;;;6.40;99.90;;;;;;5061272;28;20048;-70
2021/12/16 11:18:02;;;;;;;6.57;3.80;;;6.50;99.90;;;;;;5061168;28;20036;-70
2021/12/16 11:20:59;;;;;;;6.93;3.85;;;6.50;99.90;;;;;;5061328;28;20026;-70
2021/12/16 11:23:26;;;;;;;8.88;3.50;;;6.70;99.90;;;;;;5060510;28;20037;-70
2021/12/16 11:25:54;;;;;;;;;;;6.80;99.90;;;;;;5062527;28;20033;-70
2021/12/16 11:28:24;;;;;;;5.45;3.50;;;6.90;99.90;;;;;;5060555;28;19989;-71
2021/12/16 11:30:55;;;;;;;5.57;3.00;;;7.20;99.90;;;;;;5062364;28;20021;-70
2021/12/16 11:33:29;;;;;;;6.90;3.53;;;7.60;99.90;;;;;;5061681;28;20028;-71
2021/12/16 11:36:04;;;;;;;5.45;3.42;;;7.90;99.90;;;;;;5062158;28;20028;-70
2021/12/16 11:38:29;;;;;;;6.72;3.80;;;8.10;99.90;;;;;;5060531;28;20047;-71
2021/12/16 11:41:01;;;;;;;6.77;3.50;;;8.20;99.90;;;;;;5061178;28;20316;-70
2021/12/16 11:43:41;;;;;;;6.03;3.70;;;8.20;99.90;;;;;;5061762;28;20036;-70
2021/12/16 11:46:17;;;;;;;6.82;3.90;;;8.20;99.90;;;;;;5062733;28;20066;-71
2021/12/16 11:48:44;;;;;;;5.72;3.70;;;8.40;99.90;;;;;;5059267;28;20459;-70
2021/12/16 11:51:34;;;;;;;6.32;3.75;;;8.80;99.50;;;;;;5061840;28;20092;-70
2021/12/16 11:54:05;;;;;;;6.68;4.03;;;9.00;98.70;;;;;;5058035;28;20035;-70
2021/12/16 11:56:42;;;;;;;6.07;3.80;;;8.70;98.80;;;;;;5059902;28;20035;-71
2021/12/16 11:59:09;;;;;;;6.57;4.05;;;8.40;99.80;;;;;;5055601;28;20025;-71
2021/12/16 12:01:38;;;;;;;7.40;4.45;;;8.20;99.90;;;;;;5061139;28;20482;-71
2021/12/16 12:04:07;;;;;;;7.85;4.35;;;7.90;99.90;;;;;;5060803;28;20090;-70
2021/12/16 12:06:33;;;;;;;7.68;4.60;;;7.80;99.90;;;;;;5062343;28;20084;-70
2021/12/16 12:09:01;;;;;;;9.02;4.70;;;7.70;99.90;;;;;;5060707;28;20503;-71
2021/12/16 12:11:30;;;;;;;5.55;3.85;;;7.50;99.90;;;;;;5060212;28;20107;-71
2021/12/16 12:14:08;;;;;;;8.98;5.00;;;7.50;99.90;;;;;;5061407;28;20031;-70
2021/12/16 12:16:39;;;;;;;8.30;4.75;;;7.40;99.90;;;;;;5061064;28;20016;-71
2021/12/16 12:19:18;;;;;;;7.47;4.88;;;7.30;99.90;;;;;;5059636;28;20569;-70
2021/12/16 12:21:54;;;;;;;8.00;4.25;;;7.20;99.90;;;;;;5060468;28;20032;-71
2021/12/16 12:24:21;;;;;;;8.98;4.90;;;7.20;99.90;;;;;;5060624;28;20028;-71
2021/12/16 12:26:59;;;;;;;10.45;5.47;;;7.20;99.90;;;;;;5064840;28;20028;-70
2021/12/16 12:29:32;;;;;;;8.68;5.50;;;7.00;99.90;;;;;;5063197;28;20081;-70
2021/12/16 12:32:07;;;;;;;9.75;5.35;;;7.00;99.90;;;;;;5063898;28;20020;-70
2021/12/16 12:34:35;;;;;;;8.70;5.35;;;7.00;99.90;;;;;;5063924;28;20745;-70
2021/12/16 12:37:05;;;;;;;10.02;5.60;;;6.90;99.90;;;;;;5064270;28;20033;-70
2021/12/16 12:39:37;;;;;;;9.27;5.63;;;6.90;99.90;;;;;;5063730;28;20025;-70
2021/12/16 12:42:04;;;;;;;39.67;7.85;;;6.80;99.90;;;;;;5064704;28;20500;-71
2021/12/16 12:44:30;;;;;;;12.98;5.97;;;6.90;99.90;;;;;;5060740;28;20029;-71
2021/12/16 12:46:59;;;;;;;9.47;5.67;;;6.80;99.90;;;;;;5064216;28;20418;-70
2021/12/16 12:49:27;;;;;;;9.32;5.63;;;6.80;99.90;;;;;;5062194;28;20036;-70
2021/12/16 12:52:04;;;;;;;9.65;5.57;;;6.80;99.90;;;;;;5064471;28;20027;-70
2021/12/16 12:54:31;;;;;;;10.15;6.13;;;6.90;99.90;;;;;;5060172;28;20377;-70
2021/12/16 12:57:00;;;;;;;10.95;6.35;;;6.90;99.90;;;;;;5063090;28;20413;-70
2021/12/16 12:59:38;;;;;;;12.02;6.78;;;6.90;99.90;;;;;;5062028;28;20030;-70
2021/12/16 13:02:16;;;;;;;9.57;5.70;;;6.90;99.90;;;;;;5062771;28;20040;-70
2021/12/16 13:04:55;;;;;;;13.77;6.45;;;7.00;99.90;;;;;;5059823;28;20047;-70
2021/12/16 13:07:39;;;;;;;13.35;6.43;;;7.00;99.90;;;;;;5062717;28;20027;-70
2021/12/16 13:10:15;;;;;;;10.20;6.05;;;7.00;99.90;;;;;;5061374;28;20013;-70
2021/12/16 13:12:55;;;;;;;11.65;6.45;;;7.00;99.90;;;;;;5065213;28;20140;-70
2021/12/16 13:15:36;;;;;;;12.27;6.82;;;7.00;99.90;;;;;;5064514;28;20027;-71
2021/12/16 13:24:10;;;;;;;11.95;6.43;;;6.90;99.90;;;;;;5061897;28;20067;-70
2021/12/16 13:29:52;;;;;;;17.05;8.50;;;6.70;99.90;;;;;;5058286;28;20032;-70
2021/12/16 13:32:26;;;;;;;15.75;7.43;;;6.70;99.90;;;;;;5063618;28;20017;-71
2021/12/16 13:35:10;;;;;;;13.18;7.00;;;6.60;99.90;;;;;;5062454;28;20049;-70
2021/12/16 13:37:40;;;;;;;13.43;6.72;;;6.60;99.90;;;;;;5057040;28;20378;-71
2021/12/16 13:40:09;;;;;;;13.30;6.85;;;6.50;99.90;;;;;;5063355;28;20670;-70
2021/12/16 13:43:19;;;;;;;11.68;7.65;;;6.50;99.90;;;;;;5065916;28;20052;-70
2021/12/16 13:46:03;;;;;;;12.30;7.38;;;6.50;99.90;;;;;;5047105;28;20028;-70
2021/12/16 13:48:50;;;;;;;12.25;7.32;;;6.50;99.90;;;;;;5063345;28;20157;-70
2021/12/16 14:02:59;;;;;;;15.07;7.63;;;6.40;99.90;;;;;;5065566;28;20712;-70
2021/12/16 14:05:56;;;;;;;;;;;6.40;99.90;;;;;;5063932;28;20347;-70
2021/12/16 14:08:34;;;;;;;14.75;8.32;;;6.40;99.90;;;;;;5064743;28;19920;-70
2021/12/16 14:11:15;;;;;;;13.70;8.40;;;6.30;99.90;;;;;;5064258;28;20082;-70
2021/12/16 14:25:08;;;;;;;14.57;8.73;;;6.10;99.90;;;;;;5063752;28;20499;-70
2021/12/16 14:42:10;;;;;;;12.68;7.90;;;5.90;99.90;;;;;;5062273;28;20043;-70
2021/12/16 14:48:07;;;;;;;15.40;7.80;;;5.90;99.90;;;;;;5060807;28;20046;-70
2021/12/16 14:51:03;;;;;;;11.80;7.72;;;5.90;99.90;;;;;;5060374;28;20043;-70
2021/12/16 14:53:42;;;;;;;13.10;7.57;;;5.90;99.90;;;;;;5052049;28;20052;-70
2021/12/16 14:56:12;;;;;;;11.68;7.95;;;5.90;99.90;;;;;;5055673;28;20419;-70
2021/12/16 14:58:40;;;;;;;13.15;8.05;;;5.90;99.90;;;;;;5058699;28;20016;-70
2021/12/16 15:01:08;;;;;;;16.25;8.82;;;5.90;99.90;;;;;;5055355;28;20037;-70
2021/12/16 15:03:39;;;;;;;14.40;7.43;;;5.90;99.90;;;;;;5062583;28;20025;-70
2021/12/16 15:06:10;;;;;;;11.73;7.18;;;5.90;99.90;;;;;;5060436;28;20099;-70
2021/12/16 15:08:49;;;;;;;9.90;6.47;;;5.90;99.90;;;;;;5056979;28;20024;-70
2021/12/16 15:11:35;;;;;;;11.27;6.63;;;5.90;99.90;;;;;;5062166;28;20025;-71
2021/12/16 15:14:16;;;;;;;13.50;7.25;;;5.90;99.90;;;;;;5060586;28;20055;-70
2021/12/16 15:16:56;;;;;;;12.50;6.97;;;5.90;99.90;;;;;;5058231;28;20033;-70
2021/12/16 15:44:13;;;;;;;14.07;8.05;;;5.70;99.90;;;;;;5057596;28;20032;-70
2021/12/16 15:46:40;;;;;;;12.27;7.70;;;5.60;99.90;;;;;;5060723;28;20032;-70
2021/12/16 15:49:06;;;;;;;;;;;5.60;99.90;;;;;;5060103;28;20033;-70
2021/12/16 15:51:32;;;;;;;12.10;7.32;;;5.60;99.90;;;;;;5061426;28;19908;-70
2021/12/16 15:54:00;;;;;;;13.68;7.32;;;5.60;99.90;;;;;;5061061;28;20038;-70
2021/12/16 15:56:34;;;;;;;11.23;7.05;;;5.70;99.90;;;;;;5060464;28;20466;-70
2021/12/16 15:59:07;;;;;;;14.27;8.68;;;5.70;99.90;;;;;;5057397;28;20032;-70
2021/12/16 16:01:45;;;;;;;11.45;6.75;;;5.70;99.90;;;;;;5061137;28;20031;-70
2021/12/16 16:04:20;;;;;;;12.73;7.10;;;5.70;99.90;;;;;;5059749;28;20044;-70
2021/12/16 16:06:48;;;;;;;12.93;7.35;;;5.70;99.90;;;;;;5059593;28;20028;-70
2021/12/16 16:09:15;;;;;;;12.15;7.35;;;5.70;99.90;;;;;;5060092;28;20032;-71
2021/12/16 16:11:45;;;;;;;12.38;7.80;;;5.60;99.90;;;;;;5060306;28;20440;-70
2021/12/16 16:14:12;;;;;;;13.15;7.55;;;5.70;99.90;;;;;;5061720;28;20021;-70
2021/12/16 16:16:47;;;;;;;15.27;7.05;;;5.60;99.90;;;;;;5057219;28;20074;-70
2021/12/16 16:19:19;;;;;;;14.75;7.85;;;5.60;99.90;;;;;;5056366;28;20883;-70
2021/12/16 16:21:48;;;;;;;11.95;6.80;;;5.60;99.90;;;;;;5060752;28;20109;-70
2021/12/16 16:24:29;;;;;;;11.50;7.20;;;5.60;99.90;;;;;;5060650;28;20028;-70
2021/12/16 16:26:57;;;;;;;11.93;6.75;;;5.60;99.90;;;;;;5059504;28;20017;-71
2021/12/16 16:29:26;;;;;;;12.55;6.78;;;5.60;99.90;;;;;;5057854;28;20027;-70
2021/12/16 16:31:53;;;;;;;12.65;6.57;;;5.60;99.90;;;;;;5058861;28;20024;-70
2021/12/16 16:34:18;;;;;;;28.95;12.32;;;5.60;99.90;;;;;;5057056;28;20403;-70
2021/12/16 16:36:48;;;;;;;26.93;13.57;;;5.60;99.90;;;;;;5059243;28;20055;-70
2021/12/16 16:39:18;;;;;;;9.43;6.43;;;5.60;99.90;;;;;;5058113;28;20019;-70
2021/12/16 16:41:58;;;;;;;8.93;6.03;;;5.70;99.90;;;;;;5059206;28;20374;-71
2021/12/16 16:44:25;;;;;;;9.80;6.38;;;5.60;99.90;;;;;;5056093;28;20027;-70
2021/12/16 16:47:15;;;;;;;9.15;5.78;;;5.60;99.90;;;;;;5059402;28;20021;-70
2021/12/16 16:49:50;;;;;;;10.68;5.60;;;5.60;99.90;;;;;;5057348;28;20077;-70
2021/12/16 16:52:22;;;;;;;9.23;5.95;;;5.60;99.90;;;;;;5058991;28;20028;-70
2021/12/16 16:55:00;;;;;;;8.32;5.18;;;5.60;99.90;;;;;;5059014;28;20095;-70
2021/12/16 16:57:45;;;;;;;8.13;4.97;;;5.70;99.90;;;;;;5056779;28;20714;-70
2021/12/16 17:00:20;;;;;;;9.18;5.35;;;5.70;99.90;;;;;;5054641;28;20028;-71
2021/12/16 17:02:52;;;;;;;8.55;5.10;;;5.70;99.90;;;;;;5055365;28;20024;-71
2021/12/16 17:05:28;;;;;;;9.25;5.47;;;5.70;99.90;;;;;;5058421;28;20111;-70
2021/12/16 17:08:17;;;;;;;8.02;4.80;;;5.70;99.90;;;;;;5059084;28;20048;-70
2021/12/16 17:10:51;;;;;;;7.65;4.53;;;5.70;99.90;;;;;;5056288;28;20027;-71
2021/12/16 17:14:18;;;;;;;7.32;4.20;;;5.70;99.90;;;;;;5059047;28;20025;-71